Time;durP1;ratioP1;P1;durP2;ratioP2;P2;SDS_P1;SDS_P2;PMS_P1;PMS_P2;Temp;Humidity;BMP_temperature;BMP_pressure;BME280_temperature;BME280_humidity;BME280_pressure;Samples;Min_cycle;Max_cycle;Signal;HPM_P1;HPM_P2
2022/06/02 00:00:07;;;;;;;;;;;19.70;99.90;19.90;99392.00;;;;336193;28;91536;-85
2022/06/02 00:00:28;;;;;;;;;;;19.70;99.90;20.10;99396.00;;;;336597;28;83683;-86
2022/06/02 00:00:42;;;;;;;;;;;19.70;99.90;20.00;99402.00;;;;333586;29;91564;-85
2022/06/02 00:00:59;;;;;;;;;;;19.70;99.90;20.00;99400.00;;;;339001;28;83403;-85
2022/06/02 00:01:11;;;;;;;;;;;19.70;99.90;20.10;99403.00;;;;337118;28;91242;-85
2022/06/02 00:01:30;;;;;;;;;;;19.70;99.90;20.10;99396.00;;;;337520;28;83776;-86
2022/06/02 00:01:52;;;;;;;;;;;19.70;99.90;19.90;99402.00;;;;333456;29;89611;-86
2022/06/02 00:02:09;;;;;;;;;;;19.80;99.90;19.90;99390.00;;;;335235;29;82544;-85
2022/06/02 00:02:24;;;;;;;;;;;19.80;99.90;19.90;99406.00;;;;334570;29;92387;-85
2022/06/02 00:02:54;;;;;;;;;;;19.80;99.90;19.90;99404.00;;;;335228;29;83479;-85
2022/06/02 00:03:45;;;;;;;;;;;19.70;99.90;19.90;99403.00;;;;336123;28;91235;-85
2022/06/02 00:04:16;;;;;;;;;;;19.80;99.90;19.80;99392.00;;;;336889;28;83522;-85
2022/06/02 00:04:58;;;;;;;;;;;19.70;99.90;19.80;99402.00;;;;337561;28;90450;-86
2022/06/02 00:05:15;;;;;;;;;;;19.70;99.90;19.80;99406.00;;;;336447;28;83411;-86
2022/06/02 00:05:34;;;;;;;;;;;19.70;99.90;19.80;99401.00;;;;336330;28;91688;-86
2022/06/02 00:05:51;;;;;;;;;;;19.70;99.90;19.80;99391.00;;;;337718;28;84277;-86
2022/06/02 00:06:23;;;;;;;;;;;19.70;99.90;19.60;99393.00;;;;334747;29;91757;-85
2022/06/02 00:06:45;;;;;;;;;;;19.70;99.90;19.60;99398.00;;;;333984;29;83367;-86
2022/06/02 00:07:10;;;;;;;;;;;19.70;99.90;19.80;99401.00;;;;332340;29;91925;-86
2022/06/02 00:07:39;;;;;;;;;;;19.70;99.90;19.70;99396.00;;;;334945;29;83549;-86
2022/06/02 00:08:06;;;;;;;;;;;19.60;99.90;19.70;99401.00;;;;334705;29;91619;-86
2022/06/02 00:08:26;;;;;;;;;;;19.60;99.90;19.70;99400.00;;;;335079;29;83293;-86
2022/06/02 00:08:51;;;;;;;;;;;19.60;99.90;19.70;99400.00;;;;336005;28;90532;-86
2022/06/02 00:09:26;;;;;;;;;;;19.60;99.90;19.70;99393.00;;;;335232;29;83438;-85
2022/06/02 00:09:54;;;;;;;;;;;19.60;99.90;19.80;99405.00;;;;336133;28;91201;-85
2022/06/02 00:10:24;;;;;;;;;;;19.60;99.90;19.80;99397.00;;;;333958;29;82562;-86
2022/06/02 00:10:49;;;;;;;;;;;19.60;99.90;19.80;99393.00;;;;334842;29;90397;-86
2022/06/02 00:11:29;;;;;;;;;;;19.60;99.90;19.80;99387.00;;;;335341;29;83362;-85
2022/06/02 00:11:49;;;;;;;;;;;19.60;99.90;19.70;99392.00;;;;333511;29;91193;-85
2022/06/02 00:12:23;;;;;;;;;;;19.60;99.90;19.70;99394.00;;;;334001;29;83396;-85
2022/06/02 00:12:37;;;;;;;;;;;19.60;99.90;19.70;99397.00;;;;334791;29;91721;-86
2022/06/02 00:12:55;;;;;;;;;;;19.60;99.90;19.70;99388.00;;;;336527;28;83432;-85
2022/06/02 00:13:18;;;;;;;;;;;19.60;99.90;19.70;99388.00;;;;333465;29;92184;-86
2022/06/02 00:13:41;;;;;;;;;;;19.60;99.90;19.60;99392.00;;;;332585;29;82299;-85
2022/06/02 00:14:10;;;;;;;;;;;19.60;99.90;19.70;99388.00;;;;332133;29;90060;-86
2022/06/02 00:14:30;;;;;;;;;;;19.60;99.90;19.70;99381.00;;;;332560;29;82560;-86
2022/06/02 00:15:00;;;;;;;;;;;19.60;99.90;19.70;99386.00;;;;333541;29;91260;-86
2022/06/02 00:15:26;;;;;;;;;;;19.60;99.90;19.70;99382.00;;;;333865;29;83485;-85
2022/06/02 00:15:41;;;;;;;;;;;19.60;99.90;19.70;99384.00;;;;334880;29;91251;-86
2022/06/02 00:16:00;;;;;;;;;;;19.60;99.90;19.70;99378.00;;;;335280;29;82448;-85
2022/06/02 00:16:16;;;;;;;;;;;19.60;99.90;19.70;99377.00;;;;337118;28;90268;-86
2022/06/02 00:17:00;;;;;;;;;;;19.60;99.90;19.60;99375.00;;;;336233;28;82583;-86
2022/06/02 00:17:31;;;;;;;;;;;19.60;99.90;19.60;99379.00;;;;335902;28;91746;-86
2022/06/02 00:18:05;;;;;;;;;;;19.50;99.90;19.80;99370.00;;;;331533;29;82517;-85
2022/06/02 00:18:29;;;;;;;;;;;19.50;99.90;19.80;99375.00;;;;332192;29;91884;-86
2022/06/02 00:18:51;;;;;;;;;;;19.50;99.90;19.80;99376.00;;;;336578;28;83459;-86
2022/06/02 00:19:07;;;;;;;;;;;19.50;99.90;19.90;99373.00;;;;334941;29;90238;-85
2022/06/02 00:20:26;;;;;;;;;;;19.50;99.90;19.80;99379.00;;;;336966;28;82916;-85
2022/06/02 00:20:45;;;;;;;;;;;19.60;99.90;19.70;99369.00;;;;334762;29;92880;-86
2022/06/02 00:21:15;;;;;;;;;;;19.50;99.90;19.60;99370.00;;;;335225;29;83493;-85
2022/06/02 00:21:37;;;;;;;;;;;19.50;99.90;19.70;99366.00;;;;334730;29;90500;-86
2022/06/02 00:21:57;;;;;;;;;;;19.50;99.90;19.70;99373.00;;;;332690;29;82533;-86
2022/06/02 00:22:26;;;;;;;;;;;19.50;99.90;19.60;99378.00;;;;334713;29;91632;-85
2022/06/02 00:22:46;;;;;;;;;;;19.50;99.90;19.70;99374.00;;;;335217;29;83294;-85
2022/06/02 00:23:19;;;;;;;;;;;19.50;99.90;19.70;99366.00;;;;335975;28;91549;-86
2022/06/02 00:23:41;;;;;;;;;;;19.50;99.90;19.80;99371.00;;;;334004;29;82473;-86
2022/06/02 00:24:06;;;;;;;;;;;19.50;99.90;19.80;99369.00;;;;334690;29;90083;-85
2022/06/02 00:24:28;;;;;;;;;;;19.50;99.90;19.80;99368.00;;;;335279;29;82557;-86
2022/06/02 00:25:00;;;;;;;;;;;19.60;99.90;19.70;99370.00;;;;337064;28;91589;-86
2022/06/02 00:25:32;;;;;;;;;;;19.60;99.90;19.70;99368.00;;;;335349;28;83360;-85
2022/06/02 00:25:59;;;;;;;;;;;19.50;99.90;19.70;99372.00;;;;333900;29;91313;-85
2022/06/02 00:26:45;;;;;;;;;;;19.50;99.90;19.70;99376.00;;;;335438;29;82314;-86
2022/06/02 00:27:20;;;;;;;;;;;19.50;99.90;19.60;99381.00;;;;332535;29;92530;-85
2022/06/02 00:28:24;;;;;;;;;;;19.50;99.90;19.50;99380.00;;;;331388;29;83663;-85
2022/06/02 00:28:57;;;;;;;;;;;19.50;99.90;19.40;99385.00;;;;334471;28;90255;-85
2022/06/02 00:29:17;;;;;;;;;;;19.40;99.90;19.50;99382.00;;;;337338;28;83417;-85
2022/06/02 00:29:44;;;;;;;;;;;19.40;99.90;19.60;99379.00;;;;338088;28;91631;-85
2022/06/02 00:30:17;;;;;;;;;;;19.40;99.90;19.60;99384.00;;;;337982;28;82579;-85
2022/06/02 00:30:32;;;;;;;;;;;19.40;99.90;19.60;99381.00;;;;337475;28;91441;-86
2022/06/02 00:30:58;;;;;;;;;;;19.40;99.90;19.60;99379.00;;;;337660;28;83498;-86
2022/06/02 00:31:32;;;;;;;;;;;19.40;99.90;19.60;99379.00;;;;337624;28;91192;-86
2022/06/02 00:32:02;;;;;;;;;;;19.40;99.90;19.60;99381.00;;;;340461;28;83440;-86
2022/06/02 00:32:25;;;;;;;;;;;19.40;99.90;19.60;99380.00;;;;337504;28;90346;-85
2022/06/02 00:32:50;;;;;;;;;;;19.40;99.90;19.60;99378.00;;;;337748;28;83477;-86
2022/06/02 00:33:23;;;;;;;;;;;19.40;99.90;19.70;99378.00;;;;336217;28;90152;-86
2022/06/02 00:34:12;;;;;;;;;;;19.40;99.90;19.60;99376.00;;;;339064;28;83409;-86
2022/06/02 00:34:42;;;;;;;;;;;19.40;99.90;19.60;99380.00;;;;336179;28;91830;-85
2022/06/02 00:35:10;;;;;;;;;;;19.40;99.90;19.60;99381.00;;;;340458;28;83520;-86
2022/06/02 00:35:40;;;;;;;;;;;19.40;99.90;19.70;99386.00;;;;337476;28;92423;-85
2022/06/02 00:35:54;;;;;;;;;;;19.40;99.90;19.60;99380.00;;;;339115;28;83379;-85
2022/06/02 00:36:13;;;;;;;;;;;19.40;99.90;19.60;99383.00;;;;337462;28;90224;-86
2022/06/02 00:36:32;;;;;;;;;;;19.40;99.90;19.70;99392.00;;;;337986;28;83414;-85
2022/06/02 00:36:50;;;;;;;;;;;19.40;99.90;19.80;99383.00;;;;340157;28;90251;-84
2022/06/02 00:37:05;;;;;;;;;;;19.40;99.90;19.70;99389.00;;;;339283;28;82509;-85
2022/06/02 00:37:21;;;;;;;;;;;19.50;99.90;19.60;99387.00;;;;340110;28;89219;-86
2022/06/02 00:37:50;;;;;;;;;;;19.50;99.90;19.70;99390.00;;;;341871;28;82521;-85
2022/06/02 00:38:18;;;;;;;;;;;19.50;99.90;19.60;99391.00;;;;340000;28;90672;-85
2022/06/02 00:38:34;;;;;;;;;;;19.50;99.90;19.60;99393.00;;;;340447;28;82431;-84
2022/06/02 00:38:46;;;;;;;;;;;19.50;99.90;19.60;99389.00;;;;339733;28;90510;-86
2022/06/02 00:38:58;;;;;;;;;;;19.50;99.90;19.60;99393.00;;;;338183;28;83383;-87
2022/06/02 00:39:18;;;;;;;;;;;19.50;99.90;19.70;99390.00;;;;338687;28;91654;-87
2022/06/02 00:39:31;;;;;;;;;;;19.50;99.90;19.50;99390.00;;;;336021;29;83309;-87
2022/06/02 00:39:43;;;;;;;;;;;19.50;99.90;19.50;99384.00;;;;336952;28;90933;-86
2022/06/02 00:39:55;;;;;;;;;;;19.50;99.90;19.50;99394.00;;;;338031;28;82674;-87
2022/06/02 00:40:08;;;;;;;;;;;19.50;99.90;19.50;99399.00;;;;336395;28;92163;-86
2022/06/02 00:40:20;;;;;;;;;;;19.40;99.90;19.70;99389.00;;;;340728;28;82724;-87
2022/06/02 00:40:33;;;;;;;;;;;19.40;99.90;19.70;99389.00;;;;338422;28;91490;-86
2022/06/02 00:40:45;;;;;;;;;;;19.50;99.90;19.70;99387.00;;;;339920;28;82447;-87
2022/06/02 00:41:12;;;;;;;;;;;19.50;99.90;19.80;99397.00;;;;338723;28;91174;-87
2022/06/02 00:41:35;;;;;;;;;;;19.50;99.90;19.70;99386.00;;;;338865;28;83549;-85
2022/06/02 00:41:52;;;;;;;;;;;19.50;99.90;19.60;99394.00;;;;340092;28;91333;-85
2022/06/02 00:42:16;;;;;;;;;;;19.50;99.90;19.70;99393.00;;;;340561;28;82440;-85
2022/06/02 00:42:53;;;;;;;;;;;19.50;99.90;19.60;99383.00;;;;338717;28;90784;-85
2022/06/02 00:43:27;;;;;;;;;;;19.50;99.90;19.60;99395.00;;;;337926;28;83357;-86
2022/06/02 00:44:14;;;;;;;;;;;19.40;99.90;19.60;99389.00;;;;334969;29;89507;-85
2022/06/02 00:45:04;;;;;;;;;;;19.40;99.90;19.60;99397.00;;;;335200;29;83458;-86
2022/06/02 00:45:17;;;;;;;;;;;19.40;99.90;19.60;99400.00;;;;334747;29;90490;-85
2022/06/02 00:45:28;;;;;;;;;;;19.40;99.90;19.50;99400.00;;;;333801;29;82607;-86
2022/06/02 00:45:41;;;;;;;;;;;19.40;99.90;19.50;99397.00;;;;334930;29;91214;-86
2022/06/02 00:45:58;;;;;;;;;;;19.40;99.90;19.40;99395.00;;;;335014;29;83653;-86
2022/06/02 00:46:33;;;;;;;;;;;19.40;99.90;19.50;99402.00;;;;335888;28;89534;-86
2022/06/02 00:46:59;;;;;;;;;;;19.40;99.90;19.40;99402.00;;;;335187;29;83420;-86
2022/06/02 00:47:39;;;;;;;;;;;19.40;99.90;19.50;99400.00;;;;333413;29;91573;-86
2022/06/02 00:48:29;;;;;;;;;;;19.40;99.90;19.50;99396.00;;;;335217;29;83907;-86
2022/06/02 00:49:08;;;;;;;;;;;19.40;99.90;19.70;99400.00;;;;336093;28;91685;-85
2022/06/02 00:49:26;;;;;;;;;;;19.40;99.90;19.70;99392.00;;;;335901;28;82467;-86
2022/06/02 00:50:00;;;;;;;;;;;19.40;99.90;19.40;99396.00;;;;335977;28;92086;-85
2022/06/02 00:50:42;;;;;;;;;;;19.40;99.90;19.50;99391.00;;;;333963;29;83536;-85
2022/06/02 00:51:02;;;;;;;;;;;19.40;99.90;19.50;99395.00;;;;336057;28;92929;-86
2022/06/02 00:51:15;;;;;;;;;;;19.40;99.90;19.50;99393.00;;;;333908;29;83534;-85
2022/06/02 00:51:54;;;;;;;;;;;19.40;99.90;19.50;99394.00;;;;334768;29;91840;-86
2022/06/02 00:52:27;;;;;;;;;;;19.40;99.90;19.60;99393.00;;;;333448;28;83647;-85
2022/06/02 00:53:03;;;;;;;;;;;19.40;99.90;19.50;99395.00;;;;336065;28;90320;-85
2022/06/02 00:57:30;;;;;;;;;;;19.40;99.90;19.50;99389.00;;;;333768;29;83460;-86
2022/06/02 00:57:35;;;;;;;;;;;19.30;99.90;19.50;99381.00;;;;334780;29;90543;-86
2022/06/02 00:58:02;;;;;;;;;;;19.30;99.90;19.60;99379.00;;;;335435;28;83539;-85
2022/06/02 00:58:33;;;;;;;;;;;19.30;99.90;19.70;99376.00;;;;333328;29;91596;-86
2022/06/02 00:59:12;;;;;;;;;;;19.30;99.90;19.60;99386.00;;;;336444;28;82594;-85
2022/06/02 00:59:30;;;;;;;;;;;19.30;99.90;19.60;99378.00;;;;336049;28;92118;-85
2022/06/02 00:59:58;;;;;;;;;;;19.40;99.90;19.60;99375.00;;;;337710;28;83526;-85
2022/06/02 01:00:19;;;;;;;;;;;19.40;99.90;19.60;99382.00;;;;334651;29;91779;-85
2022/06/02 01:00:38;;;;;;;;;;;19.30;99.90;19.50;99376.00;;;;336464;28;82608;-85
2022/06/02 01:01:18;;;;;;;;;;;19.30;99.90;19.40;99382.00;;;;333559;29;91092;-86
2022/06/02 01:01:35;;;;;;;;;;;19.30;99.90;19.50;99382.00;;;;332622;29;83629;-85
2022/06/02 01:01:47;;;;;;;;;;;19.30;99.90;19.50;99375.00;;;;332061;29;91608;-85
2022/06/02 01:01:59;;;;;;;;;;;19.30;99.90;19.50;99376.00;;;;332643;29;83588;-86
2022/06/02 01:02:11;;;;;;;;;;;19.30;99.90;19.50;99382.00;;;;332214;29;90196;-85
2022/06/02 01:02:23;;;;;;;;;;;19.30;99.90;19.60;99376.00;;;;333533;29;83564;-86
2022/06/02 01:03:11;;;;;;;;;;;19.30;99.90;19.60;99379.00;;;;333428;29;90439;-85
2022/06/02 01:03:24;;;;;;;;;;;19.30;99.90;19.60;99387.00;;;;332568;29;82524;-85
2022/06/02 01:03:46;;;;;;;;;;;19.40;99.90;19.50;99384.00;;;;331073;29;91538;-86
2022/06/02 01:03:58;;;;;;;;;;;19.30;99.90;19.50;99379.00;;;;332636;29;83242;-86
2022/06/02 01:04:17;;;;;;;;;;;19.40;99.90;19.50;99389.00;;;;332206;29;91408;-86
2022/06/02 01:04:29;;;;;;;;;;;19.30;99.90;19.50;99384.00;;;;333156;29;82589;-85
2022/06/02 01:04:42;;;;;;;;;;;19.30;99.90;19.60;99382.00;;;;333538;29;91070;-86
2022/06/02 01:04:54;;;;;;;;;;;19.30;99.90;19.50;99383.00;;;;332520;29;83660;-86
2022/06/02 01:05:06;;;;;;;;;;;19.30;99.90;19.60;99380.00;;;;329596;29;91633;-86
2022/06/02 01:05:39;;;;;;;;;;;19.30;99.90;19.60;99383.00;;;;331610;29;83590;-86
2022/06/02 01:06:18;;;;;;;;;;;19.40;99.90;19.50;99388.00;;;;332164;29;91792;-85
2022/06/02 01:07:05;;;;;;;;;;;19.40;99.90;19.70;99387.00;;;;332611;29;82600;-86
2022/06/02 01:07:35;;;;;;;;;;;19.40;99.90;19.60;99394.00;;;;330748;29;91746;-86
2022/06/02 01:08:13;;;;;;;;;;;19.40;99.90;19.60;99390.00;;;;335060;28;83463;-85
2022/06/02 01:08:31;;;;;;;;;;;19.40;99.90;19.60;99388.00;;;;334115;29;90631;-86
2022/06/02 01:09:27;;;;;;;;;;;19.40;99.90;19.60;99391.00;;;;333911;29;83566;-85
2022/06/02 01:10:00;;;;;;;;;;;19.40;99.90;19.60;99391.00;;;;332137;29;92537;-86
2022/06/02 01:10:46;;;;;;;;;;;19.40;99.90;19.70;99390.00;;;;332571;29;83578;-85
2022/06/02 01:11:30;;;;;;;;;;;19.40;99.90;19.50;99398.00;;;;329524;29;89578;-85
2022/06/02 01:12:18;;;;;;;;;;;19.40;99.90;19.60;99394.00;;;;328724;29;83367;-85
2022/06/02 01:13:34;;;;;;;;;;;19.40;99.90;19.60;99393.00;;;;328334;29;89469;-85
2022/06/02 01:14:10;;;;;;;;;;;19.40;99.90;19.50;99393.00;;;;328887;29;83694;-85
2022/06/02 01:14:41;;;;;;;;;;;19.40;99.90;19.60;99388.00;;;;326334;29;88283;-86
2022/06/02 01:14:58;;;;;;;;;;;19.40;99.90;19.60;99392.00;;;;326410;29;83388;-86
2022/06/02 01:15:27;;;;;;;;;;;19.40;99.90;19.50;99391.00;;;;325960;29;90871;-85
2022/06/02 01:16:11;;;;;;;;;;;19.40;99.90;19.60;99385.00;;;;323837;30;82480;-85
2022/06/02 01:16:26;;;;;;;;;;;19.40;99.90;19.60;99384.00;;;;325544;29;90497;-85
2022/06/02 01:16:48;;;;;;;;;;;19.40;99.90;19.60;99390.00;;;;327554;29;83708;-86
2022/06/02 01:17:26;;;;;;;;;;;19.40;99.90;19.50;99382.00;;;;326091;29;89288;-86
2022/06/02 01:18:23;;;;;;;;;;;19.40;99.90;19.50;99378.00;;;;353521;27;76055;-85
2022/06/02 01:18:58;;;;;;;;;;;19.30;99.90;19.50;99380.00;;;;352648;27;82445;-85
2022/06/02 01:19:31;;;;;;;;;;;19.30;99.90;19.40;99379.00;;;;349715;27;86089;-86
2022/06/02 01:20:11;;;;;;;;;;;19.30;99.90;19.40;99375.00;;;;348765;27;83255;-85
2022/06/02 01:20:30;;;;;;;;;;;19.20;99.90;19.50;99378.00;;;;348362;27;87674;-85
2022/06/02 01:21:12;;;;;;;;;;;19.30;99.90;19.30;99384.00;;;;348385;27;83318;-85
2022/06/02 01:21:27;;;;;;;;;;;19.30;99.90;19.30;99379.00;;;;345754;28;85411;-86
2022/06/02 01:21:43;;;;;;;;;;;19.20;99.90;19.20;99375.00;;;;347114;28;82542;-85
2022/06/02 01:21:54;;;;;;;;;;;19.20;99.90;19.30;99374.00;;;;349916;27;85829;-86
2022/06/02 01:22:20;;;;;;;;;;;19.20;99.90;19.30;99378.00;;;;348528;27;82482;-86
2022/06/02 01:23:08;;;;;;;;;;;19.20;99.90;19.30;99374.00;;;;347855;27;86148;-86
2022/06/02 01:23:46;;;;;;;;;;;19.20;99.90;19.20;99375.00;;;;342277;28;83399;-86
2022/06/02 01:24:08;;;;;;;;;;;19.20;99.90;19.20;99375.00;;;;344322;28;87049;-86
2022/06/02 01:24:37;;;;;;;;;;;19.20;99.90;19.20;99367.00;;;;344337;28;82451;-86
2022/06/02 01:25:07;;;;;;;;;;;19.20;99.90;19.30;99371.00;;;;345728;28;87069;-85
2022/06/02 01:25:43;;;;;;;;;;;19.10;99.90;19.20;99381.00;;;;346709;28;83543;-86
2022/06/02 01:26:28;;;;;;;;;;;19.20;99.90;19.20;99370.00;;;;342841;28;87331;-86
2022/06/02 01:27:07;;;;;;;;;;;19.10;99.90;19.10;99380.00;;;;345776;28;83705;-86
2022/06/02 01:27:56;;;;;;;;;;;19.10;99.90;19.20;99383.00;;;;345703;28;87646;-85
2022/06/02 01:28:29;;;;;;;;;;;19.10;99.90;19.30;99380.00;;;;345759;28;83470;-86
2022/06/02 01:29:08;;;;;;;;;;;19.10;99.90;19.20;99374.00;;;;345356;28;87182;-86
2022/06/02 01:29:45;;;;;;;;;;;19.10;99.90;19.10;99386.00;;;;343706;28;83499;-85
2022/06/02 01:30:16;;;;;;;;;;;19.10;99.90;19.10;99377.00;;;;341494;28;87276;-86
2022/06/02 01:30:30;;;;;;;;;;;19.10;99.90;19.10;99383.00;;;;341643;28;83449;-86
2022/06/02 01:30:47;;;;;;;;;;;19.10;99.90;19.10;99383.00;;;;343015;28;85951;-85
2022/06/02 01:31:17;;;;;;;;;;;19.10;99.90;19.10;99385.00;;;;344326;28;83254;-85
2022/06/02 01:31:40;;;;;;;;;;;19.10;99.90;19.10;99388.00;;;;344090;28;85827;-86
2022/06/02 01:32:01;;;;;;;;;;;19.10;99.90;19.10;99385.00;;;;344301;28;83425;-85
2022/06/02 01:32:24;;;;;;;;;;;19.10;99.90;19.10;99381.00;;;;345796;28;83652;-85
2022/06/02 01:33:10;;;;;;;;;;;19.00;99.90;19.10;99382.00;;;;347113;28;83462;-86
2022/06/02 01:33:28;;;;;;;;;;;19.00;99.90;19.10;99381.00;;;;344325;28;86308;-86
2022/06/02 01:34:04;;;;;;;;;;;19.00;99.90;19.10;99381.00;;;;344347;28;82543;-86
2022/06/02 01:34:19;;;;;;;;;;;19.10;99.90;19.10;99386.00;;;;345461;28;85797;-86
2022/06/02 01:34:36;;;;;;;;;;;19.00;99.90;19.10;99384.00;;;;346872;28;83390;-86
2022/06/02 01:35:06;;;;;;;;;;;19.00;99.90;19.10;99386.00;;;;345011;28;87780;-86
2022/06/02 01:35:25;;;;;;;;;;;19.00;99.90;19.10;99386.00;;;;345839;28;83431;-86
2022/06/02 01:35:41;;;;;;;;;;;19.00;99.90;19.10;99386.00;;;;344382;28;87231;-86
2022/06/02 01:36:14;;;;;;;;;;;19.00;99.90;19.20;99378.00;;;;347014;28;82364;-86
2022/06/02 01:36:56;;;;;;;;;;;19.00;99.90;19.00;99383.00;;;;345772;28;86096;-85
2022/06/02 01:37:25;;;;;;;;;;;19.00;99.90;19.00;99385.00;;;;344379;28;83228;-86
2022/06/02 01:37:48;;;;;;;;;;;19.00;99.90;19.10;99384.00;;;;344215;28;87038;-86
2022/06/02 01:38:14;;;;;;;;;;;19.00;99.90;19.10;99381.00;;;;342573;28;83442;-86
2022/06/02 01:38:33;;;;;;;;;;;19.00;99.90;19.10;99383.00;;;;345636;28;87274;-85
2022/06/02 01:38:48;;;;;;;;;;;19.00;99.90;19.20;99385.00;;;;345802;28;83288;-85
2022/06/02 01:39:26;;;;;;;;;;;19.00;99.90;19.20;99382.00;;;;347054;28;87301;-86
2022/06/02 01:40:00;;;;;;;;;;;19.00;99.90;19.30;99379.00;;;;347086;28;83327;-86
2022/06/02 01:40:36;;;;;;;;;;;19.00;99.90;19.20;99380.00;;;;345387;28;87195;-85
2022/06/02 01:41:02;;;;;;;;;;;19.00;99.90;19.00;99384.00;;;;344046;28;83489;-86
2022/06/02 01:41:32;;;;;;;;;;;19.00;99.90;19.00;99381.00;;;;341339;28;86826;-85
2022/06/02 01:41:53;;;;;;;;;;;19.00;99.90;19.10;99384.00;;;;343135;28;83451;-86
2022/06/02 01:42:15;;;;;;;;;;;19.00;99.90;19.20;99382.00;;;;342951;28;86122;-86
2022/06/02 01:42:30;;;;;;;;;;;19.00;99.90;19.20;99384.00;;;;345604;28;83440;-85
2022/06/02 01:42:53;;;;;;;;;;;19.00;99.90;19.20;99378.00;;;;345529;28;85226;-86
2022/06/02 01:43:14;;;;;;;;;;;19.00;99.90;19.10;99390.00;;;;344369;28;82677;-85
2022/06/02 01:43:48;;;;;;;;;;;19.00;99.90;19.10;99394.00;;;;347966;27;87878;-86
2022/06/02 01:44:26;;;;;;;;;;;19.00;99.90;19.00;99399.00;;;;347107;28;83434;-85
2022/06/02 01:44:56;;;;;;;;;;;19.00;99.90;19.10;99396.00;;;;341565;28;88210;-85
2022/06/02 01:45:11;;;;;;;;;;;19.00;99.90;19.10;99394.00;;;;344338;28;83480;-86
2022/06/02 01:45:41;;;;;;;;;;;19.00;99.90;19.10;99396.00;;;;344345;28;86252;-85
2022/06/02 01:46:01;;;;;;;;;;;19.00;99.90;19.00;99413.00;;;;345762;28;82575;-86
2022/06/02 01:46:42;;;;;;;;;;;19.00;99.90;19.00;99406.00;;;;346035;28;87305;-85
2022/06/02 01:47:08;;;;;;;;;;;19.00;99.90;19.00;99410.00;;;;343066;28;82504;-86
2022/06/02 01:47:35;;;;;;;;;;;19.00;99.90;19.00;99408.00;;;;346543;28;87176;-86
2022/06/02 01:47:47;;;;;;;;;;;19.00;99.90;19.10;99413.00;;;;345715;28;83353;-85
2022/06/02 01:48:05;;;;;;;;;;;18.90;99.90;19.10;99405.00;;;;344307;28;87149;-85
2022/06/02 01:48:35;;;;;;;;;;;19.00;99.90;19.20;99410.00;;;;345888;28;83442;-85
2022/06/02 01:48:55;;;;;;;;;;;19.00;99.90;19.20;99403.00;;;;344346;28;87547;-85
2022/06/02 01:49:43;;;;;;;;;;;19.00;99.90;19.20;99402.00;;;;345593;28;83469;-86
2022/06/02 01:50:07;;;;;;;;;;;19.00;99.90;19.20;99405.00;;;;344295;28;85913;-86
2022/06/02 01:50:41;;;;;;;;;;;19.00;99.90;19.20;99396.00;;;;344244;28;83438;-85
2022/06/02 01:51:23;;;;;;;;;;;19.00;99.90;19.10;99390.00;;;;345698;28;86079;-86
2022/06/02 01:52:05;;;;;;;;;;;19.00;99.90;19.00;99389.00;;;;343062;28;82409;-85
2022/06/02 01:52:33;;;;;;;;;;;19.00;99.90;18.90;99394.00;;;;344142;28;86221;-86
2022/06/02 01:53:12;;;;;;;;;;;19.00;99.90;18.90;99390.00;;;;345736;28;82432;-86
2022/06/02 01:53:31;;;;;;;;;;;19.00;99.90;18.90;99397.00;;;;342922;28;87749;-86
2022/06/02 01:53:55;;;;;;;;;;;19.00;99.90;19.00;99397.00;;;;344360;28;83642;-85
2022/06/02 01:54:28;;;;;;;;;;;19.00;99.90;19.00;99401.00;;;;344384;28;86140;-86
2022/06/02 01:54:41;;;;;;;;;;;18.90;99.90;18.90;99401.00;;;;342980;28;82412;-85
2022/06/02 01:55:04;;;;;;;;;;;19.00;99.90;18.90;99408.00;;;;344280;28;87238;-86
2022/06/02 01:55:39;;;;;;;;;;;19.00;99.90;18.90;99417.00;;;;342017;28;83734;-85
2022/06/02 01:56:10;;;;;;;;;;;18.90;99.90;18.90;99413.00;;;;344128;28;87074;-85
2022/06/02 01:56:33;;;;;;;;;;;18.90;99.90;18.90;99428.00;;;;344300;28;82593;-85
2022/06/02 01:57:08;;;;;;;;;;;18.90;99.90;18.90;99424.00;;;;346890;28;85218;-86
2022/06/02 01:57:19;;;;;;;;;;;18.90;99.90;18.90;99437.00;;;;345465;28;82349;-86
2022/06/02 01:57:41;;;;;;;;;;;18.90;99.90;18.90;99443.00;;;;345728;28;85911;-86
2022/06/02 01:58:08;;;;;;;;;;;18.90;99.90;18.90;99448.00;;;;345706;28;82395;-85
2022/06/02 01:58:36;;;;;;;;;;;18.90;99.90;18.80;99459.00;;;;344974;28;87897;-85
2022/06/02 01:59:11;;;;;;;;;;;18.90;99.90;18.80;99470.00;;;;345054;28;83491;-86
2022/06/02 01:59:32;;;;;;;;;;;18.90;99.90;18.80;99471.00;;;;342892;28;87481;-85
2022/06/02 01:59:57;;;;;;;;;;;18.90;99.90;18.80;99479.00;;;;344223;28;83513;-86
2022/06/02 02:00:14;;;;;;;;;;;18.80;99.90;18.80;99482.00;;;;342681;28;86583;-85
2022/06/02 02:00:26;;;;;;;;;;;18.80;99.90;18.80;99491.00;;;;347118;28;83271;-85
2022/06/02 02:00:38;;;;;;;;;;;18.80;99.90;18.80;99486.00;;;;346952;28;85359;-84
2022/06/02 02:01:01;;;;;;;;;;;18.80;99.90;18.80;99484.00;;;;344169;28;82405;-85
2022/06/02 02:01:39;;;;;;;;;;;18.80;99.90;18.80;99492.00;;;;343954;28;85949;-85
2022/06/02 02:01:58;;;;;;;;;;;18.80;99.90;18.90;99494.00;;;;344252;28;82710;-86
2022/06/02 02:02:16;;;;;;;;;;;18.80;99.90;18.90;99487.00;;;;345749;28;85092;-85
2022/06/02 02:03:05;;;;;;;;;;;18.80;99.90;18.80;99492.00;;;;343875;28;82480;-85
2022/06/02 02:03:31;;;;;;;;;;;18.80;99.90;18.80;99495.00;;;;344339;28;86493;-85
2022/06/02 02:04:04;;;;;;;;;;;18.80;99.90;19.00;99493.00;;;;346921;28;82465;-86
2022/06/02 02:04:38;;;;;;;;;;;18.80;99.90;18.80;99492.00;;;;348846;27;86195;-85
2022/06/02 02:04:54;;;;;;;;;;;18.80;99.90;18.80;99490.00;;;;349681;27;82423;-85
2022/06/02 02:05:16;;;;;;;;;;;18.80;99.90;18.80;99490.00;;;;348473;27;87492;-85
2022/06/02 02:05:46;;;;;;;;;;;18.70;99.90;18.80;99493.00;;;;345826;28;83367;-85
2022/06/02 02:06:04;;;;;;;;;;;18.80;99.90;18.80;99498.00;;;;345536;28;86566;-86
2022/06/02 02:06:41;;;;;;;;;;;18.70;99.90;18.80;99504.00;;;;345847;28;83324;-86
2022/06/02 02:07:09;;;;;;;;;;;18.70;99.90;18.80;99502.00;;;;344346;28;85969;-86
2022/06/02 02:07:32;;;;;;;;;;;18.80;99.90;18.80;99494.00;;;;346606;28;83560;-85
2022/06/02 02:07:58;;;;;;;;;;;18.70;99.90;18.80;99487.00;;;;348353;27;87207;-85
2022/06/02 02:08:35;;;;;;;;;;;18.80;99.90;18.80;99489.00;;;;347141;28;83312;-85
2022/06/02 02:09:11;;;;;;;;;;;18.70;99.90;18.90;99492.00;;;;347144;28;83862;-85
2022/06/02 02:09:38;;;;;;;;;;;18.70;99.90;18.90;99489.00;;;;347104;28;82598;-84
2022/06/02 02:09:57;;;;;;;;;;;18.70;99.90;19.00;99482.00;;;;345657;28;88159;-85
2022/06/02 02:10:36;;;;;;;;;;;18.70;99.90;18.90;99477.00;;;;345743;28;83424;-85
2022/06/02 02:10:56;;;;;;;;;;;18.70;99.90;18.90;99492.00;;;;348271;27;87260;-85
2022/06/02 02:11:21;;;;;;;;;;;18.80;99.90;18.90;99490.00;;;;348523;27;82401;-85
2022/06/02 02:11:55;;;;;;;;;;;18.80;99.90;18.90;99496.00;;;;348360;27;87384;-85
2022/06/02 02:12:29;;;;;;;;;;;18.70;99.90;18.80;99488.00;;;;348552;27;83276;-85
2022/06/02 02:13:00;;;;;;;;;;;18.80;99.90;18.70;99494.00;;;;345317;28;86582;-85
2022/06/02 02:13:21;;;;;;;;;;;18.70;99.90;18.80;99487.00;;;;345329;28;83351;-85
2022/06/02 02:14:14;;;;;;;;;;;18.70;99.90;18.80;99486.00;;;;348042;27;85444;-85
2022/06/02 02:14:38;;;;;;;;;;;18.70;99.90;18.90;99487.00;;;;341575;28;83261;-85
2022/06/02 02:14:56;;;;;;;;;;;18.70;99.90;18.90;99480.00;;;;344221;28;86998;-85
2022/06/02 02:15:12;;;;;;;;;;;18.80;99.90;18.90;99474.00;;;;342619;28;83601;-85
2022/06/02 02:15:53;;;;;;;;;;;18.70;99.90;18.90;99471.00;;;;342838;28;87326;-85
2022/06/02 02:16:17;;;;;;;;;;;18.70;99.90;18.90;99468.00;;;;344268;28;83397;-85
2022/06/02 02:16:52;;;;;;;;;;;18.70;99.90;19.00;99464.00;;;;344599;28;87730;-86
2022/06/02 02:17:14;;;;;;;;;;;18.70;99.90;18.90;99454.00;;;;340224;28;83387;-86
2022/06/02 02:17:31;;;;;;;;;;;18.80;99.90;19.00;99456.00;;;;342911;28;86289;-85
2022/06/02 02:17:55;;;;;;;;;;;18.80;99.90;19.00;99451.00;;;;335999;29;83436;-85